AFA189 RCFN-RCFN

Flight info

Callsign AFA189
Flight time 0h 4m
Altitude 1100
Route DCT ZN DCT
Aircraft DA40/L-SBDFGRY/LB2

Departure

Time 2026-04-21 16:47
Airport Taitung Airport (RCFN)

Arrival

Time 2026-04-21 16:51
Airport Taitung Airport (RCFN)
Time Latitude Longitude Altitude Speed Heading
2026-04-21 16:30 22.75939 121.10328 140 ft 0 kts 39°
2026-04-21 16:38 22.75940 121.10328 140 ft 0 kts 38°
2026-04-21 16:38 22.75945 121.10343 140 ft 4 kts 111°
2026-04-21 16:38 22.75919 121.10371 140 ft 5 kts 176°
2026-04-21 16:38 22.75883 121.10349 141 ft 8 kts 219°
2026-04-21 16:39 22.75821 121.10296 141 ft 14 kts 220°
2026-04-21 16:39 22.75730 121.10215 141 ft 19 kts 217°
2026-04-21 16:39 22.75627 121.10127 142 ft 17 kts 219°
2026-04-21 16:39 22.75537 121.10050 140 ft 16 kts 219°
2026-04-21 16:40 22.75454 121.09978 140 ft 14 kts 218°
2026-04-21 16:40 22.75377 121.09912 141 ft 16 kts 218°
2026-04-21 16:40 22.75285 121.09831 141 ft 16 kts 218°
2026-04-21 16:40 22.75213 121.09802 142 ft 5 kts 146°
2026-04-21 16:41 22.75207 121.09809 143 ft 0 kts 128°
2026-04-21 16:45 22.75173 121.09855 142 ft 12 kts 127°
2026-04-21 16:46 22.75197 121.09911 141 ft 10 kts 36°
2026-04-21 16:46 22.75325 121.10023 142 ft 45 kts 39°
2026-04-21 16:46 22.75673 121.10324 203 ft 74 kts 37°
2026-04-21 16:46 22.76069 121.10671 438 ft 73 kts 37°
2026-04-21 16:47 22.76463 121.11026 596 ft 77 kts 37°
2026-04-21 16:47 22.76900 121.11415 755 ft 82 kts 37°
2026-04-21 16:47 22.77391 121.11398 991 ft 74 kts 314°
2026-04-21 16:47 22.77735 121.10945 1100 ft 86 kts 302°
2026-04-21 16:48 22.77639 121.10292 1066 ft 101 kts 228°
2026-04-21 16:48 22.77077 121.09825 1074 ft 102 kts 221°
2026-04-21 16:48 22.76495 121.09349 1051 ft 106 kts 223°
2026-04-21 16:48 22.75949 121.08830 1088 ft 103 kts 227°
2026-04-21 16:49 22.75410 121.08331 1123 ft 99 kts 222°
2026-04-21 16:49 22.74871 121.07874 1111 ft 98 kts 221°
2026-04-21 16:49 22.74325 121.07429 1095 ft 97 kts 220°
2026-04-21 16:49 22.73788 121.07006 1085 ft 93 kts 214°
2026-04-21 16:50 22.73167 121.07068 956 ft 98 kts 140°
2026-04-21 16:50 22.72795 121.07659 825 ft 91 kts 112°
2026-04-21 16:50 22.72983 121.08188 671 ft 76 kts 20°
2026-04-21 16:50 22.73471 121.08425 463 ft 81 kts 34°
2026-04-21 16:51 22.73904 121.08786 401 ft 78 kts 34°
2026-04-21 16:51 22.74326 121.09155 274 ft 78 kts 35°
2026-04-21 16:51 22.74746 121.09522 166 ft 75 kts 36°
2026-04-21 16:51 22.75077 121.09805 145 ft 48 kts 38°
2026-04-21 16:52 22.75407 121.10091 191 ft 71 kts 39°
2026-04-21 16:52 22.75804 121.10435 393 ft 73 kts 37°
2026-04-21 16:52 22.76207 121.10770 638 ft 74 kts 34°
2026-04-21 16:52 22.76636 121.11133 773 ft 83 kts 38°
2026-04-21 16:53 22.77121 121.11385 988 ft 79 kts 346°
2026-04-21 16:53 22.77518 121.10952 1137 ft 88 kts 309°
2026-04-21 16:53 22.77821 121.10351 1201 ft 97 kts 269°
2026-04-21 16:53 22.77380 121.09757 1108 ft 108 kts 218°
2026-04-21 16:54 22.76782 121.09283 1068 ft 107 kts 225°
2026-04-21 16:54 22.76206 121.08760 1057 ft 104 kts 222°
2026-04-21 16:54 22.75661 121.08299 1032 ft 99 kts 221°
2026-04-21 16:54 22.75136 121.07855 1024 ft 94 kts 222°
2026-04-21 16:55 22.74640 121.07407 1049 ft 92 kts 223°
2026-04-21 16:55 22.74134 121.06981 1039 ft 93 kts 222°
2026-04-21 16:55 22.73583 121.06691 988 ft 90 kts 179°
2026-04-21 16:55 22.73064 121.07054 835 ft 92 kts 121°
2026-04-21 16:56 22.72772 121.07626 685 ft 86 kts 107°
2026-04-21 16:56 22.73039 121.08120 545 ft 77 kts 24°
2026-04-21 16:56 22.73489 121.08439 486 ft 78 kts 34°
2026-04-21 16:56 22.73924 121.08816 392 ft 83 kts 33°
2026-04-21 16:57 22.74381 121.09206 257 ft 84 kts 35°
2026-04-21 16:57 22.74826 121.09593 158 ft 77 kts 37°
2026-04-21 16:57 22.75183 121.09900 145 ft 60 kts 36°
2026-04-21 16:57 22.75496 121.10172 143 ft 56 kts 41°
2026-04-21 16:58 22.75795 121.10439 147 ft 55 kts 42°
2026-04-21 16:58 22.76116 121.10709 146 ft 61 kts 48°
2026-04-21 16:58 22.76461 121.11010 192 ft 71 kts 38°
2026-04-21 16:58 22.76859 121.11321 385 ft 74 kts 35°
2026-04-21 16:59 22.77280 121.11670 570 ft 77 kts 34°
2026-04-21 16:59 22.77778 121.11871 736 ft 78 kts 336°
2026-04-21 16:59 22.78143 121.11459 979 ft 75 kts 311°
2026-04-21 16:59 22.78447 121.10972 1121 ft 88 kts 300°
2026-04-21 17:00 22.78440 121.10296 1104 ft 101 kts 237°
2026-04-21 17:00 22.77870 121.09805 1063 ft 108 kts 219°
2026-04-21 17:00 22.77466 121.09491 1078 ft 107 kts 219°
2026-04-21 17:00 22.76647 121.08852 1063 ft 109 kts 219°
2026-04-21 17:01 22.76040 121.08359 1044 ft 105 kts 221°
2026-04-21 17:01 22.75481 121.07896 1058 ft 98 kts 221°
2026-04-21 17:01 22.74952 121.07456 1070 ft 95 kts 221°
2026-04-21 17:01 22.74424 121.07024 1054 ft 97 kts 219°
2026-04-21 17:02 22.73881 121.06602 1052 ft 97 kts 218°
2026-04-21 17:02 22.73246 121.06608 957 ft 98 kts 146°
2026-04-21 17:02 22.72853 121.07203 816 ft 94 kts 121°
2026-04-21 17:02 22.72805 121.07817 654 ft 84 kts 47°
2026-04-21 17:03 22.73236 121.08217 555 ft 83 kts 55°
2026-04-21 17:03 22.73680 121.08609 430 ft 84 kts 53°
2026-04-21 17:03 22.74140 121.09004 327 ft 85 kts 52°
2026-04-21 17:03 22.74602 121.09397 207 ft 85 kts 49°
2026-04-21 17:04 22.75037 121.09775 152 ft 78 kts 53°
2026-04-21 17:04 22.75443 121.10126 144 ft 73 kts 53°
2026-04-21 17:04 22.75827 121.10458 147 ft 70 kts 53°
2026-04-21 17:04 22.76232 121.10802 222 ft 77 kts 37°
2026-04-21 17:05 22.76642 121.11155 461 ft 75 kts 36°
2026-04-21 17:05 22.77072 121.11493 672 ft 77 kts 18°
2026-04-21 17:05 22.77489 121.11294 880 ft 73 kts 290°
2026-04-21 17:05 22.77612 121.10726 1017 ft 83 kts 289°
2026-04-21 17:06 22.77773 121.10089 1121 ft 95 kts 287°
2026-04-21 17:06 22.77549 121.09439 1120 ft 103 kts 219°
2026-04-21 17:06 22.76955 121.08981 1112 ft 108 kts 218°
2026-04-21 17:06 22.76329 121.08515 1078 ft 110 kts 221°
2026-04-21 17:07 22.75916 121.08170 1058 ft 111 kts 222°
2026-04-21 17:07 22.75126 121.07517 1054 ft 103 kts 220°
2026-04-21 17:07 22.74568 121.07049 1039 ft 101 kts 221°
2026-04-21 17:07 22.73975 121.06659 1003 ft 99 kts 192°
2026-04-21 17:08 22.73394 121.07018 857 ft 102 kts 124°
2026-04-21 17:08 22.73030 121.07592 775 ft 89 kts 122°
2026-04-21 17:08 22.73138 121.08153 599 ft 82 kts 38°
2026-04-21 17:08 22.73584 121.08518 462 ft 79 kts 35°
2026-04-21 17:09 22.74444 121.09259 240 ft 79 kts 37°
2026-04-21 17:09 22.74854 121.09615 151 ft 66 kts 38°
2026-04-21 17:09 22.75157 121.09869 142 ft 46 kts 39°
2026-04-21 17:10 22.75462 121.10135 153 ft 72 kts 41°
2026-04-21 17:10 22.75879 121.10505 351 ft 75 kts 36°
2026-04-21 17:10 22.76277 121.10864 547 ft 74 kts 36°
2026-04-21 17:10 22.76708 121.11204 677 ft 80 kts 20°
2026-04-21 17:11 22.77188 121.11035 849 ft 80 kts 310°
2026-04-21 17:11 22.77560 121.10575 1042 ft 83 kts 313°
2026-04-21 17:11 22.77582 121.09949 1078 ft 102 kts 238°
2026-04-21 17:11 22.77024 121.09435 1052 ft 106 kts 222°
2026-04-21 17:12 22.76446 121.08941 1054 ft 105 kts 221°
2026-04-21 17:12 22.75901 121.08474 1006 ft 94 kts 220°
2026-04-21 17:12 22.75269 121.08449 768 ft 96 kts 157°
2026-04-21 17:12 22.74691 121.08824 503 ft 97 kts 149°
2026-04-21 17:13 22.74585 121.09386 237 ft 85 kts 40°
2026-04-21 17:13 22.74973 121.09715 147 ft 56 kts 39°
2026-04-21 17:13 22.75225 121.09935 142 ft 38 kts 38°
2026-04-21 17:13 22.75406 121.10092 141 ft 31 kts 38°
2026-04-21 17:14 22.75566 121.10231 144 ft 28 kts 38°
2026-04-21 17:14 22.75711 121.10357 143 ft 24 kts 39°
2026-04-21 17:14 22.75821 121.10386 142 ft 15 kts 311°
2026-04-21 17:14 22.75870 121.10345 141 ft 4 kts
2026-04-21 17:15 22.75887 121.10354 141 ft 4 kts 37°
2026-04-21 17:15 22.75919 121.10370 140 ft 3 kts 349°
2026-04-21 17:15 22.75937 121.10357 140 ft 4 kts 309°
2026-04-21 17:15 22.75940 121.10342 140 ft 1 kts 231°
2026-04-21 17:16 22.75931 121.10326 140 ft 2 kts 290°
2026-04-21 17:16 22.75935 121.10324 140 ft 0 kts 37°